Time;durP1;ratioP1;P1;durP2;ratioP2;P2;SDS_P1;SDS_P2;PMS_P1;PMS_P2;Temp;Humidity;BMP_temperature;BMP_pressure;BME280_temperature;BME280_humidity;BME280_pressure;Samples;Min_cycle;Max_cycle;Signal;HPM_P1;HPM_P2
2021/09/03 05:01:37;;;;;;;3.97;3.58;;;;;;;18.99;57.63;95363.81;5542965;23;1238843;-75
2021/09/03 05:04:03;;;;;;;5.05;3.75;;;;;;;18.48;58.03;95353.38;4941149;28;20432;-75
2021/09/03 05:06:28;;;;;;;4.13;3.70;;;;;;;19.64;54.56;95342.31;4952145;28;20113;-75
2021/09/03 05:08:54;;;;;;;3.92;3.60;;;;;;;20.20;53.63;95344.72;4967565;28;20106;-75
2021/09/03 05:11:19;;;;;;;4.40;3.67;;;;;;;20.48;52.80;95336.34;4951665;28;20455;-75
2021/09/03 05:13:45;;;;;;;4.60;4.20;;;;;;;20.75;51.75;95336.75;4948707;28;20034;-75
2021/09/03 05:16:10;;;;;;;5.05;3.85;;;;;;;21.35;49.50;95329.63;4933874;28;20023;-75
2021/09/03 05:18:36;;;;;;;4.07;3.78;;;;;;;21.66;48.33;95341.66;4950301;28;20077;-75
2021/09/03 05:21:01;;;;;;;4.10;3.75;;;;;;;22.49;47.97;95342.94;4966474;28;20034;-76
2021/09/03 05:23:27;;;;;;;3.75;3.28;;;;;;;23.03;45.89;95335.47;4953230;28;20034;-76
2021/09/03 05:25:52;;;;;;;3.72;3.42;;;;;;;22.49;46.85;95334.19;4949947;28;20056;-75
2021/09/03 05:28:18;;;;;;;5.40;3.47;;;;;;;24.02;43.95;95333.84;4947733;28;20038;-75
2021/09/03 05:30:43;;;;;;;3.75;3.45;;;;;;;24.87;41.83;95328.00;4947459;29;20031;-77
2021/09/03 05:33:08;;;;;;;3.50;3.13;;;;;;;24.34;42.35;95334.03;4932003;29;20370;-77
2021/09/03 05:35:34;;;;;;;3.50;3.22;;;;;;;25.96;40.10;95323.06;4931158;29;20412;-78
2021/09/03 05:38:04;;;;;;;3.45;3.25;;;;;;;26.36;38.72;95339.22;4931104;29;20034;-75
2021/09/03 05:40:30;;;;;;;3.92;3.63;;;;;;;25.07;40.63;95336.16;4930190;28;20427;-77
2021/09/03 05:42:55;;;;;;;3.65;3.35;;;;;;;26.17;38.97;95344.19;4931943;29;20584;-77
2021/09/03 05:45:21;;;;;;;3.85;3.45;;;;;;;26.26;38.65;95343.69;4934643;29;20031;-77
2021/09/03 05:47:46;;;;;;;4.40;3.47;;;;;;;25.90;39.48;95337.38;4950785;29;20540;-76
2021/09/03 05:50:12;;;;;;;4.88;3.90;;;;;;;26.20;39.62;95356.94;4918641;29;20032;-78
2021/09/03 05:52:38;;;;;;;5.50;3.70;;;;;;;26.83;38.59;95360.41;4933098;29;20023;-76
2021/09/03 05:55:04;;;;;;;6.03;4.20;;;;;;;27.24;37.54;95348.78;4916176;29;20094;-78
2021/09/03 05:57:31;;;;;;;4.35;3.95;;;;;;;27.54;37.45;95356.03;4911557;29;20027;-78
2021/09/03 05:59:56;;;;;;;4.57;4.18;;;;;;;23.75;44.98;95354.13;4950394;29;20105;-78
2021/09/03 06:02:22;;;;;;;7.72;5.03;;;;;;;21.62;50.00;95354.50;4918187;29;20493;-78
2021/09/03 06:04:47;;;;;;;6.20;3.88;;;;;;;21.54;50.49;95345.09;4949696;29;20849;-77
2021/09/03 06:07:14;;;;;;;5.22;4.82;;;;;;;22.02;48.27;95357.28;4934289;29;20492;-77
2021/09/03 06:09:39;;;;;;;5.72;5.22;;;;;;;21.43;49.76;95350.34;4949310;29;20074;-79
2021/09/03 06:12:05;;;;;;;7.38;5.35;;;;;;;18.34;57.92;95356.06;4934650;29;20035;-77
2021/09/03 06:14:31;;;;;;;7.25;5.35;;;;;;;21.24;50.74;95346.22;4917927;29;20023;-76
2021/09/03 06:16:56;;;;;;;5.07;4.68;;;;;;;20.93;51.80;95350.69;4933726;29;20035;-78
2021/09/03 06:19:23;;;;;;;5.25;4.78;;;;;;;18.76;57.59;95361.72;4951659;29;20050;-78
2021/09/03 06:21:48;;;;;;;4.88;4.45;;;;;;;17.62;63.05;95358.91;4914288;29;20031;-77
2021/09/03 06:24:27;;;;;;;5.03;4.63;;;;;;;18.93;56.22;95349.72;4934711;29;20023;-79
2021/09/03 06:26:54;;;;;;;5.78;4.88;;;;;;;20.24;54.39;95348.53;4920796;29;20035;-78
2021/09/03 06:29:42;;;;;;;6.75;4.53;;;;;;;20.73;53.59;95354.63;4935020;29;20063;-78
2021/09/03 06:32:18;;;;;;;5.07;4.57;;;;;;;21.06;51.85;95349.72;4900175;29;20055;-79
2021/09/03 06:34:48;;;;;;;5.07;4.60;;;;;;;22.65;47.55;95348.50;4928528;29;20075;-78
2021/09/03 06:37:14;;;;;;;4.00;3.70;;;;;;;26.98;39.25;95341.03;4931727;29;20092;-78
2021/09/03 06:39:39;;;;;;;4.72;3.95;;;;;;;30.00;33.39;95338.34;4916517;29;20031;-78
2021/09/03 06:42:06;;;;;;;4.03;3.60;;;;;;;30.29;32.59;95344.44;4918591;29;20916;-78
2021/09/03 06:44:31;;;;;;;4.93;3.70;;;;;;;31.44;31.59;95343.22;4930708;29;20019;-78
2021/09/03 06:46:57;;;;;;;4.40;3.25;;;;;;;31.53;30.49;95344.97;4934282;29;20031;-78
2021/09/03 06:49:22;;;;;;;5.05;3.80;;;;;;;30.20;31.44;95338.94;4914643;29;20035;-81
2021/09/03 06:51:48;;;;;;;3.90;3.40;;;;;;;31.57;30.11;95348.66;4914164;29;20042;-78
2021/09/03 06:54:13;;;;;;;3.90;3.60;;;;;;;28.00;34.50;95343.44;4897901;29;20511;-78
2021/09/03 06:56:39;;;;;;;3.33;2.95;;;;;;;30.38;32.38;95350.75;4897460;29;20039;-78
2021/09/03 06:59:04;;;;;;;3.97;3.55;;;;;;;31.15;30.72;95351.41;4915286;29;20175;-78
2021/09/03 07:01:30;;;;;;;4.25;3.30;;;;;;;25.63;38.65;95350.72;4931463;29;20059;-78
2021/09/03 07:18:08;;;;;;;3.83;3.53;;;;;;;23.84;43.31;95350.00;5058574;27;20409;-76
2021/09/03 07:20:34;;;;;;;4.93;3.67;;;;;;;23.57;43.03;95358.59;5063043;28;20040;-76
2021/09/03 07:23:01;;;;;;;3.28;3.08;;;;;;;22.01;46.76;95351.19;5063461;28;20774;-76
2021/09/03 07:25:27;;;;;;;4.50;3.70;;;;;;;23.73;43.76;95342.97;5062599;28;20107;-76
2021/09/03 07:27:52;;;;;;;4.40;3.97;;;;;;;24.47;44.29;95342.41;5061867;28;20029;-75
2021/09/03 07:30:18;;;;;;;4.05;3.70;;;;;;;24.24;42.95;95344.50;5065147;28;20562;-76
2021/09/03 07:32:44;;;;;;;3.60;3.30;;;;;;;24.50;42.73;95346.38;5063598;28;20017;-75
2021/09/03 07:35:11;;;;;;;3.63;3.33;;;;;;;23.27;43.63;95344.88;5056994;28;20029;-77
2021/09/03 07:37:38;;;;;;;3.97;3.58;;;;;;;23.89;43.13;95350.09;5051980;28;20041;-77
2021/09/03 07:40:04;;;;;;;3.47;3.17;;;;;;;23.25;45.52;95344.31;5049199;28;20025;-77
2021/09/03 07:42:30;;;;;;;3.97;3.55;;;;;;;23.63;44.30;95342.84;5049361;28;20107;-76
2021/09/03 07:44:55;;;;;;;3.60;3.30;;;;;;;23.40;43.71;95341.16;5050020;28;20557;-75
2021/09/03 07:47:21;;;;;;;5.60;3.17;;;;;;;23.70;44.80;95341.59;5049972;28;20029;-76
2021/09/03 07:49:46;;;;;;;4.78;3.85;;;;;;;21.77;46.08;95346.91;5045385;28;20026;-76
2021/09/03 07:52:11;;;;;;;4.35;3.95;;;;;;;21.38;49.50;95348.38;5041690;28;20700;-75
2021/09/03 07:54:37;;;;;;;3.70;3.40;;;;;;;23.20;45.63;95343.44;5041310;28;20567;-76
2021/09/03 07:57:03;;;;;;;3.83;3.53;;;;;;;22.92;44.48;95344.28;5043316;28;20036;-75
2021/09/03 07:59:28;;;;;;;5.22;3.80;;;;;;;22.14;47.08;95352.78;5059150;28;20033;-78
2021/09/03 08:01:53;;;;;;;4.53;4.07;;;;;;;20.13;49.09;95351.09;5043135;28;20104;-75
2021/09/03 08:04:19;;;;;;;3.65;3.35;;;;;;;21.98;48.18;95345.56;5044651;28;20491;-75
2021/09/03 08:06:44;;;;;;;4.70;3.88;;;;;;;22.40;44.97;95339.06;5049222;28;20478;-77
2021/09/03 08:09:10;;;;;;;3.70;3.35;;;;;;;23.28;46.24;95343.81;5058373;28;20831;-75
2021/09/03 08:11:35;;;;;;;4.45;4.15;;;;;;;22.86;45.34;95334.66;5061569;28;20036;-79
2021/09/03 08:14:01;;;;;;;4.40;4.00;;;;;;;20.75;49.37;95331.50;5063639;28;20037;-74
2021/09/03 08:16:26;;;;;;;5.40;5.00;;;;;;;22.23;47.20;95324.97;5057976;28;20052;-75
2021/09/03 08:18:52;;;;;;;3.67;3.38;;;;;;;23.44;44.68;95324.56;5042395;28;20025;-76
2021/09/03 08:21:17;;;;;;;4.10;3.70;;;;;;;23.41;43.08;95311.00;5057004;28;20025;-76
2021/09/03 08:23:43;;;;;;;4.53;3.67;;;;;;;22.98;45.44;95314.25;5043727;28;20041;-76
2021/09/03 08:26:08;;;;;;;3.95;3.55;;;;;;;23.58;44.68;95307.31;5030563;28;20040;-75
2021/09/03 08:28:34;;;;;;;6.70;3.95;;;;;;;23.79;42.66;95305.75;5044670;28;20501;-77
2021/09/03 08:30:59;;;;;;;11.05;3.90;;;;;;;23.39;43.79;95302.50;5049113;28;20070;-76
2021/09/03 08:33:25;;;;;;;5.30;4.13;;;;;;;23.18;43.62;95306.69;5039745;28;20036;-76
2021/09/03 08:35:50;;;;;;;3.63;3.33;;;;;;;23.54;44.54;95300.91;5043300;28;20044;-75
2021/09/03 08:38:16;;;;;;;3.47;3.17;;;;;;;23.74;43.83;95292.47;5038808;28;20037;-74
2021/09/03 08:40:41;;;;;;;3.67;3.35;;;;;;;23.63;42.15;95294.16;5035843;28;20021;-73
2021/09/03 08:43:07;;;;;;;4.72;3.08;;;;;;;23.56;44.39;95292.75;5047109;28;20063;-76
2021/09/03 08:45:32;;;;;;;4.13;3.08;;;;;;;23.48;41.53;95286.00;5040598;28;20031;-75
2021/09/03 08:47:58;;;;;;;3.15;2.95;;;;;;;21.53;40.98;95282.06;5046834;28;20021;-75
2021/09/03 08:50:23;;;;;;;3.65;3.30;;;;;;;22.76;42.25;95285.09;5030326;28;20037;-75
2021/09/03 08:52:49;;;;;;;3.63;3.33;;;;;;;23.22;40.35;95273.41;5050133;28;20021;-76
2021/09/03 08:55:15;;;;;;;4.13;2.88;;;;;;;23.19;38.58;95265.97;5048301;28;20037;-76
2021/09/03 08:57:41;;;;;;;6.07;3.20;;;;;;;22.80;40.39;95267.72;5049065;28;20032;-76
2021/09/03 09:00:14;;;;;;;3.70;3.33;;;;;;;23.98;41.25;95269.22;5050049;28;20040;-76
2021/09/03 09:03:00;;;;;;;3.50;3.20;;;;;;;23.87;37.32;95259.53;5045979;28;20013;-76
2021/09/03 09:05:45;;;;;;;3.50;3.20;;;;;;;23.83;38.29;95261.06;5049649;28;20586;-76
2021/09/03 09:08:11;;;;;;;5.65;2.80;;;;;;;24.19;40.30;95265.00;5046029;28;20067;-77
2021/09/03 09:10:56;;;;;;;3.28;2.97;;;;;;;23.66;39.00;95261.13;5050139;28;20022;-75
2021/09/03 09:13:32;;;;;;;7.07;3.65;;;;;;;21.32;43.98;95264.97;5027983;28;20513;-74
2021/09/03 09:16:03;;;;;;;4.18;3.88;;;;;;;21.77;43.09;95262.53;5028199;28;20116;-74
2021/09/03 09:18:35;;;;;;;3.60;3.30;;;;;;;21.36;44.42;95260.03;5029440;28;20092;-78
2021/09/03 09:21:18;;;;;;;4.22;3.10;;;;;;;23.35;40.30;95253.78;5028094;28;20029;-76
2021/09/03 09:23:54;;;;;;;4.40;3.10;;;;;;;23.66;40.80;95250.56;5028115;28;20076;-76
2021/09/03 09:26:21;;;;;;;4.00;3.33;;;;;;;24.21;39.94;95247.03;5032997;28;20143;-75
2021/09/03 09:28:47;;;;;;;3.20;2.97;;;;;;;23.76;39.79;95249.88;5040350;28;20030;-74
2021/09/03 09:31:27;;;;;;;3.40;3.10;;;;;;;23.46;42.03;95252.91;5028790;28;20025;-77
2021/09/03 09:33:52;;;;;;;3.20;3.00;;;;;;;24.32;40.29;95249.53;5029378;28;20379;-75
2021/09/03 09:36:17;;;;;;;4.03;3.25;;;;;;;23.11;39.09;95242.59;5047292;28;20028;-75
2021/09/03 09:38:44;;;;;;;3.22;2.95;;;;;;;24.18;39.28;95245.66;5048618;28;20379;-75
2021/09/03 09:41:12;;;;;;;4.43;3.10;;;;;;;23.14;39.59;95231.53;5030242;28;20021;-74
2021/09/03 09:43:40;;;;;;;3.03;2.80;;;;;;;24.11;40.03;95237.91;5048817;28;20034;-75
2021/09/03 09:46:17;;;;;;;3.60;3.30;;;;;;;24.60;39.71;95236.03;5045649;28;20518;-76
2021/09/03 09:48:48;;;;;;;3.42;3.13;;;;;;;24.88;39.09;95239.50;5047429;28;20446;-76
2021/09/03 09:51:33;;;;;;;3.33;3.03;;;;;;;24.04;37.52;95239.91;5047202;28;20017;-76
2021/09/03 09:54:05;;;;;;;3.05;2.85;;;;;;;24.18;38.28;95229.00;5047348;28;20021;-77
2021/09/03 09:56:32;;;;;;;3.55;2.90;;;;;;;23.98;38.29;95227.69;5048145;28;20032;-76
2021/09/03 09:58:59;;;;;;;3.72;3.42;;;;;;;22.83;38.41;95224.19;5046263;28;20470;-75
2021/09/03 10:01:24;;;;;;;3.55;3.20;;;;;;;22.85;40.37;95222.09;5045300;28;20086;-76
2021/09/03 10:03:51;;;;;;;3.22;2.88;;;;;;;22.91;38.89;95223.78;5045936;28;20024;-75
2021/09/03 10:06:17;;;;;;;3.17;2.88;;;;;;;23.11;40.52;95213.50;5045830;28;20021;-76
2021/09/03 10:08:45;;;;;;;3.38;2.72;;;;;;;23.79;39.50;95217.66;5046715;28;20143;-78
2021/09/03 10:11:15;;;;;;;3.35;3.05;;;;;;;24.31;38.35;95216.13;5045958;28;20064;-75
2021/09/03 10:13:41;;;;;;;4.35;3.03;;;;;;;23.85;39.19;95224.59;5043708;28;20032;-77
2021/09/03 10:16:08;;;;;;;3.53;2.80;;;;;;;23.58;38.83;95217.38;5044393;28;20043;-75
2021/09/03 10:18:34;;;;;;;4.57;2.95;;;;;;;23.69;40.20;95218.31;5045843;28;20399;-77
2021/09/03 10:21:02;;;;;;;4.60;3.30;;;;;;;23.40;38.71;95217.66;5044552;28;20058;-78
2021/09/03 10:23:53;;;;;;;3.38;3.08;;;;;;;23.70;39.30;95203.22;5029372;28;20116;-74
2021/09/03 10:26:23;;;;;;;3.72;2.72;;;;;;;24.39;39.82;95207.75;5042050;28;20029;-75
2021/09/03 10:28:49;;;;;;;4.22;3.05;;;;;;;23.68;39.58;95205.31;5040366;28;20036;-77
2021/09/03 10:31:21;;;;;;;3.45;3.20;;;;;;;22.83;38.56;95201.19;5030679;28;20029;-76
2021/09/03 10:33:47;;;;;;;3.70;3.38;;;;;;;23.66;39.81;95199.50;5046276;28;20041;-77
2021/09/03 10:36:12;;;;;;;3.80;3.50;;;;;;;22.87;41.40;95193.56;5047421;28;20021;-77
2021/09/03 10:38:42;;;;;;;6.38;3.30;;;;;;;23.66;40.67;95199.50;5046498;28;20025;-75
2021/09/03 10:41:07;;;;;;;3.25;2.95;;;;;;;24.49;39.41;95196.47;5044497;28;20013;-78
2021/09/03 10:43:46;;;;;;;4.40;3.17;;;;;;;24.88;40.88;95203.19;5044698;28;20520;-77
2021/09/03 10:46:13;;;;;;;3.28;3.00;;;;;;;25.13;40.42;95203.38;5047639;28;20116;-79
2021/09/03 10:48:39;;;;;;;4.82;3.58;;;;;;;23.72;39.05;95195.84;5042602;28;20045;-77
2021/09/03 10:51:05;;;;;;;3.45;3.15;;;;;;;24.26;39.19;95200.22;5045555;28;20016;-80
2021/09/03 10:53:37;;;;;;;3.50;3.20;;;;;;;23.68;38.36;95192.09;5046976;28;20037;-77
2021/09/03 10:56:22;;;;;;;4.00;3.13;;;;;;;24.03;38.95;95188.03;5026404;28;20028;-78
2021/09/03 10:58:58;;;;;;;3.47;3.17;;;;;;;24.13;38.83;95184.72;5044444;28;20032;-78
2021/09/03 11:01:27;;;;;;;10.43;4.03;;;;;;;24.67;39.57;95186.28;5046123;28;20098;-78
2021/09/03 11:04:01;;;;;;;3.22;3.00;;;;;;;24.79;39.49;95185.34;5045861;28;20029;-78
2021/09/03 11:06:27;;;;;;;3.22;2.92;;;;;;;25.18;40.20;95184.03;5046243;28;20099;-77
2021/09/03 11:09:04;;;;;;;5.43;3.05;;;;;;;24.65;38.33;95185.75;5046413;28;20567;-78
2021/09/03 11:11:38;;;;;;;4.65;3.25;;;;;;;24.17;39.58;95177.06;5047606;28;20032;-77
2021/09/03 11:14:11;;;;;;;4.90;3.10;;;;;;;24.01;38.58;95171.59;5036094;28;20029;-77
2021/09/03 11:16:45;;;;;;;3.80;3.38;;;;;;;24.50;42.79;95182.13;5045377;28;20071;-77
2021/09/03 11:19:23;;;;;;;4.63;2.95;;;;;;;24.71;39.41;95172.53;5046917;28;20127;-78
2021/09/03 11:22:11;;;;;;;4.00;3.70;;;;;;;24.64;41.07;95167.44;5043076;28;20032;-78
2021/09/03 11:24:41;;;;;;;3.50;3.20;;;;;;;23.93;39.48;95172.03;5037637;28;20036;-75
2021/09/03 11:27:09;;;;;;;3.00;2.80;;;;;;;23.78;39.21;95165.75;5036921;28;20514;-75
2021/09/03 11:29:34;;;;;;;3.10;2.90;;;;;;;23.31;40.62;95160.13;5042986;28;20108;-75
2021/09/03 11:32:08;;;;;;;3.63;3.30;;;;;;;23.86;40.54;95157.38;5043300;28;20104;-74
2021/09/03 11:34:50;;;;;;;3.80;3.50;;;;;;;23.87;40.44;95151.03;5043412;28;20109;-74
2021/09/03 11:37:44;;;;;;;3.75;3.47;;;;;;;23.72;40.08;95156.97;5044388;28;20086;-75
2021/09/03 11:40:15;;;;;;;3.50;3.20;;;;;;;23.76;40.40;95158.06;5045151;28;20025;-74
2021/09/03 11:42:43;;;;;;;4.45;3.20;;;;;;;23.85;40.37;95153.16;5045577;28;20100;-76
2021/09/03 11:45:14;;;;;;;4.05;3.67;;;;;;;23.76;40.57;95163.34;5045587;28;20037;-75
2021/09/03 11:47:46;;;;;;;3.58;3.28;;;;;;;24.54;40.82;95149.59;5045458;28;20033;-73
2021/09/03 11:50:14;;;;;;;4.05;3.03;;;;;;;24.79;41.03;95149.00;5045137;28;20035;-76
2021/09/03 11:52:40;;;;;;;3.65;3.35;;;;;;;25.11;40.27;95146.31;5046608;28;20041;-76
2021/09/03 11:55:07;;;;;;;4.63;3.33;;;;;;;25.20;41.67;95144.81;5050532;28;20032;-78
2021/09/03 11:57:49;;;;;;;4.13;3.45;;;;;;;25.20;41.64;95136.06;5050207;28;20028;-74
2021/09/03 12:00:17;;;;;;;3.78;3.47;;;;;;;24.77;41.06;95131.75;5048519;28;20053;-75
2021/09/03 12:02:42;;;;;;;5.28;3.50;;;;;;;24.90;39.84;95126.06;5049635;28;20032;-77
2021/09/03 12:17:54;;;;;;;3.03;2.83;;;;;;;23.88;41.11;95112.97;5102233;27;20391;-76
2021/09/03 12:20:19;;;;;;;4.32;3.92;;;;;;;24.41;43.70;95114.78;5103687;28;20027;-73
2021/09/03 12:22:48;;;;;;;3.90;3.60;;;;;;;24.23;42.31;95108.03;5093615;28;20028;-77
2021/09/03 12:25:14;;;;;;;4.25;3.50;;;;;;;23.77;43.52;95096.16;5083940;28;20039;-77
2021/09/03 12:27:39;;;;;;;3.80;3.55;;;;;;;24.05;42.38;95098.56;5074366;28;20040;-77
2021/09/03 12:30:10;;;;;;;5.45;3.83;;;;;;;24.04;41.54;95096.19;5067062;28;20509;-76
2021/09/03 12:32:35;;;;;;;4.13;3.33;;;;;;;23.92;42.16;95096.31;5064988;28;20028;-76
2021/09/03 12:35:01;;;;;;;3.83;3.53;;;;;;;24.01;41.12;95094.03;5083306;28;20532;-77
2021/09/03 12:37:26;;;;;;;4.10;3.70;;;;;;;23.63;42.55;95083.59;5087323;28;20035;-78
2021/09/03 12:39:52;;;;;;;4.63;3.50;;;;;;;23.54;42.09;95080.56;5103092;28;20027;-79
2021/09/03 12:42:17;;;;;;;4.50;3.65;;;;;;;23.77;41.84;95066.25;5077331;28;20028;-77
2021/09/03 12:44:43;;;;;;;4.35;3.60;;;;;;;23.38;41.40;95066.34;5046093;28;20465;-79
2021/09/03 12:47:08;;;;;;;4.00;3.70;;;;;;;23.57;42.32;95054.41;5080452;28;20115;-79
2021/09/03 12:49:38;;;;;;;4.90;3.67;;;;;;;24.19;42.53;95063.75;5081665;28;20028;-77
2021/09/03 12:52:11;;;;;;;4.68;3.72;;;;;;;24.29;41.82;95063.84;5065558;28;20070;-79
2021/09/03 12:54:38;;;;;;;4.20;3.80;;;;;;;24.51;41.67;95059.25;5078121;28;20514;-78
2021/09/03 12:57:04;;;;;;;5.70;3.88;;;;;;;24.69;41.99;95061.50;5062020;28;20036;-78
2021/09/03 12:59:29;;;;;;;4.30;3.88;;;;;;;24.35;41.73;95057.53;5083051;28;20481;-77
2021/09/03 13:01:55;;;;;;;6.10;4.00;;;;;;;24.53;41.37;95059.81;5082021;28;20020;-77
2021/09/03 13:04:25;;;;;;;4.30;4.00;;;;;;;25.32;40.39;95052.56;5082030;28;20031;-77
2021/09/03 13:06:52;;;;;;;7.25;3.78;;;;;;;25.06;40.75;95050.84;5063521;28;20921;-76
2021/09/03 13:09:19;;;;;;;5.63;3.33;;;;;;;24.72;40.51;95050.41;5066320;28;20040;-77
2021/09/03 13:11:45;;;;;;;3.80;3.50;;;;;;;24.58;40.49;95036.78;5064516;28;20048;-77
2021/09/03 13:14:10;;;;;;;4.13;3.83;;;;;;;24.49;40.58;95054.22;5065074;28;20020;-76
2021/09/03 13:16:37;;;;;;;4.20;3.80;;;;;;;24.74;40.20;95050.13;5064026;28;20045;-76
2021/09/03 13:19:06;;;;;;;4.25;3.85;;;;;;;25.01;39.27;95048.19;5050332;28;20085;-76
2021/09/03 13:21:32;;;;;;;4.07;3.75;;;;;;;24.65;40.37;95047.97;5070508;28;20026;-77
2021/09/03 13:23:58;;;;;;;4.50;3.85;;;;;;;24.80;40.81;95044.59;5072390;28;20027;-77
2021/09/03 13:26:23;;;;;;;4.70;4.25;;;;;;;24.79;41.15;95045.63;5034891;28;20129;-78
2021/09/03 13:28:49;;;;;;;5.82;4.25;;;;;;;24.45;41.13;95039.06;5049988;28;20090;-76
2021/09/03 13:31:19;;;;;;;4.18;3.88;;;;;;;23.92;40.74;95029.38;5068455;28;20047;-76
2021/09/03 13:33:45;;;;;;;4.97;4.47;;;;;;;23.77;41.82;95026.56;5051325;28;20437;-76
2021/09/03 13:36:10;;;;;;;4.53;4.10;;;;;;;23.69;42.02;95024.38;5066864;28;20025;-77
2021/09/03 13:38:37;;;;;;;7.13;3.80;;;;;;;24.06;41.98;95027.88;5063594;28;20033;-77
2021/09/03 13:41:02;;;;;;;5.38;4.07;;;;;;;23.84;42.15;95019.22;5048921;28;20152;-78
2021/09/03 13:43:27;;;;;;;5.32;3.97;;;;;;;24.16;41.67;95014.78;5068496;28;20409;-78
2021/09/03 13:45:53;;;;;;;4.28;3.97;;;;;;;23.41;41.35;94994.47;5050301;28;20074;-77
2021/09/03 13:48:18;;;;;;;5.15;4.72;;;;;;;23.77;42.26;95013.34;5030071;28;20021;-77
2021/09/03 13:50:44;;;;;;;4.63;4.22;;;;;;;24.14;42.99;95003.66;5067036;28;20390;-76
2021/09/03 13:53:09;;;;;;;4.85;4.10;;;;;;;24.13;42.28;95002.84;5067643;28;20056;-76
2021/09/03 13:55:35;;;;;;;8.30;3.97;;;;;;;23.79;41.94;95005.97;5067584;28;20032;-77
2021/09/03 13:58:02;;;;;;;4.55;3.80;;;;;;;24.28;41.90;95003.97;5068516;28;20036;-77
2021/09/03 14:00:27;;;;;;;6.07;4.32;;;;;;;24.26;42.91;95004.25;5051422;28;20057;-77
2021/09/03 14:02:53;;;;;;;4.30;3.90;;;;;;;24.43;43.08;94989.03;5051242;28;20033;-77
2021/09/03 14:05:18;;;;;;;5.03;4.55;;;;;;;24.22;42.42;94989.91;5015045;28;20429;-76
2021/09/03 14:07:44;;;;;;;4.45;3.97;;;;;;;23.98;41.12;94986.03;5030023;28;20037;-76
2021/09/03 14:10:10;;;;;;;5.13;4.63;;;;;;;23.90;42.08;94989.09;5046972;28;20020;-76
2021/09/03 14:12:35;;;;;;;3.95;3.65;;;;;;;23.93;42.22;94988.59;5065705;28;20021;-77
2021/09/03 14:15:01;;;;;;;5.28;3.88;;;;;;;23.92;42.89;94979.09;5065762;28;20029;-77
2021/09/03 14:17:26;;;;;;;6.40;4.32;;;;;;;24.18;42.57;94978.22;5063065;28;20120;-76
2021/09/03 14:19:51;;;;;;;4.13;3.72;;;;;;;23.87;41.85;94979.03;5043227;28;20037;-77
2021/09/03 14:22:17;;;;;;;5.88;4.03;;;;;;;23.52;41.86;94969.75;5066367;28;20037;-76
2021/09/03 14:24:42;;;;;;;5.78;3.85;;;;;;;23.27;42.83;94969.47;5064532;28;20486;-75
2021/09/03 14:27:09;;;;;;;5.07;4.57;;;;;;;23.39;42.18;94967.47;5061104;28;20028;-75
2021/09/03 14:29:35;;;;;;;4.40;3.58;;;;;;;23.06;42.04;94960.50;5045561;28;20571;-75
2021/09/03 14:32:00;;;;;;;4.50;4.10;;;;;;;23.50;42.64;94966.53;5062669;28;20021;-75
2021/09/03 14:34:26;;;;;;;5.68;4.10;;;;;;;23.28;42.58;94955.19;5066435;28;20029;-76
2021/09/03 14:36:51;;;;;;;4.32;4.03;;;;;;;23.20;42.06;94968.06;5055573;28;20024;-75
2021/09/03 14:39:17;;;;;;;8.32;4.35;;;;;;;23.49;43.65;94950.94;5052305;28;20473;-75
2021/09/03 14:41:42;;;;;;;4.95;4.20;;;;;;;23.74;41.65;94953.78;5066074;28;20078;-76
2021/09/03 14:44:07;;;;;;;4.25;3.92;;;;;;;23.77;41.99;94949.84;5066794;28;20046;-75
2021/09/03 14:46:33;;;;;;;5.70;4.07;;;;;;;23.75;41.89;94939.53;5065259;28;20033;-76
2021/09/03 14:48:58;;;;;;;4.80;3.70;;;;;;;23.60;41.69;94944.66;5030641;28;20056;-75
2021/09/03 14:51:24;;;;;;;4.15;3.75;;;;;;;23.65;41.87;94941.28;5028820;28;20037;-75
2021/09/03 14:53:49;;;;;;;4.40;4.00;;;;;;;23.79;42.72;94942.47;5048120;28;20051;-75
2021/09/03 14:56:15;;;;;;;3.78;3.47;;;;;;;23.37;41.01;94939.69;5068366;28;20020;-76
2021/09/03 14:58:40;;;;;;;3.70;3.40;;;;;;;23.30;43.16;94939.88;5065440;28;20024;-75
2021/09/03 15:01:06;;;;;;;6.45;4.55;;;;;;;23.38;42.89;94926.19;5066042;28;20032;-76
2021/09/03 15:03:31;;;;;;;4.72;4.32;;;;;;;23.43;43.72;94938.72;5064156;28;20074;-76
2021/09/03 15:05:57;;;;;;;4.00;3.70;;;;;;;23.03;43.22;94937.22;5067411;28;20509;-76
2021/09/03 15:08:22;;;;;;;4.65;3.70;;;;;;;22.89;43.10;94933.34;5066390;28;20033;-76
2021/09/03 15:10:48;;;;;;;5.78;4.55;;;;;;;22.96;44.23;94941.09;5067045;28;20036;-76
2021/09/03 15:13:13;;;;;;;4.38;3.97;;;;;;;23.04;44.23;94932.75;5067310;28;20021;-76
2021/09/03 15:15:39;;;;;;;4.60;4.18;;;;;;;23.22;44.69;94928.94;5067238;28;20020;-76
2021/09/03 15:18:04;;;;;;;4.35;4.00;;;;;;;23.18;44.85;94925.22;5055741;28;20043;-76
2021/09/03 15:20:30;;;;;;;4.47;3.75;;;;;;;23.14;45.09;94929.41;5052946;28;20048;-77
2021/09/03 15:22:56;;;;;;;4.63;3.90;;;;;;;23.14;44.55;94922.28;5029950;28;20056;-76
2021/09/03 15:25:21;;;;;;;4.10;3.80;;;;;;;23.19;44.52;94921.50;5046689;28;20055;-76
2021/09/03 15:27:48;;;;;;;4.05;3.75;;;;;;;23.19;43.94;94924.16;5061134;28;20028;-76
2021/09/03 15:30:17;;;;;;;4.45;3.70;;;;;;;22.79;44.08;94919.25;5056124;28;20559;-78
2021/09/03 15:32:43;;;;;;;5.80;4.18;;;;;;;22.64;44.67;94919.81;5056923;28;20090;-77
2021/09/03 15:35:09;;;;;;;5.45;3.60;;;;;;;22.63;44.67;94912.97;5053874;28;20024;-76
2021/09/03 15:37:36;;;;;;;4.30;3.95;;;;;;;22.68;44.36;94913.03;5045195;28;20532;-77
2021/09/03 15:40:02;;;;;;;3.92;3.63;;;;;;;22.69;44.54;94912.00;5043944;28;20024;-77
2021/09/03 15:42:28;;;;;;;4.43;4.07;;;;;;;22.60;45.96;94906.31;5061215;28;20117;-76
2021/09/03 15:44:53;;;;;;;4.72;4.18;;;;;;;22.57;46.57;94908.69;5063635;28;20040;-76
2021/09/03 15:47:19;;;;;;;4.90;3.92;;;;;;;22.25;46.74;94905.09;5051534;28;20036;-77
2021/09/03 15:49:44;;;;;;;4.38;3.95;;;;;;;22.10;47.21;94907.50;5048231;28;20043;-76
2021/09/03 15:52:10;;;;;;;5.15;3.78;;;;;;;21.92;49.04;94904.13;5062903;28;20029;-76
2021/09/03 15:54:36;;;;;;;4.32;3.92;;;;;;;21.73;50.08;94907.22;5045927;28;20445;-76
2021/09/03 15:57:03;;;;;;;6.55;4.35;;;;;;;21.58;50.19;94902.50;5065457;28;20032;-76
2021/09/03 15:59:29;;;;;;;5.57;4.43;;;;;;;21.54;50.18;94902.16;5064090;28;20029;-76
2021/09/03 16:01:54;;;;;;;4.05;3.65;;;;;;;21.43;50.97;94900.41;5064593;28;20527;-76
2021/09/03 16:04:19;;;;;;;5.25;3.70;;;;;;;21.30;51.97;94902.56;5062857;28;20033;-76
2021/09/03 16:06:45;;;;;;;6.78;3.97;;;;;;;21.01;52.70;94896.50;5043354;28;20040;-76
2021/09/03 16:09:10;;;;;;;9.52;3.92;;;;;;;20.81;54.01;94898.75;5065790;28;20017;-76
2021/09/03 16:11:36;;;;;;;4.32;4.00;;;;;;;20.60;55.81;94902.03;5048821;28;20028;-76
2021/09/03 16:14:01;;;;;;;5.05;4.20;;;;;;;20.45;57.26;94899.91;5064375;28;20043;-76
2021/09/03 16:16:30;;;;;;;5.72;4.03;;;;;;;20.34;58.43;94892.84;5061912;28;20509;-76
2021/09/03 16:18:56;;;;;;;4.35;3.95;;;;;;;20.03;59.53;94901.91;5049620;28;20024;-76
2021/09/03 16:21:22;;;;;;;5.50;4.30;;;;;;;19.87;60.87;94892.06;5030817;28;20717;-76
2021/09/03 16:23:47;;;;;;;10.98;5.00;;;;;;;19.75;61.63;94902.56;5065445;28;20048;-76
2021/09/03 16:26:14;;;;;;;9.30;4.40;;;;;;;19.78;61.58;94902.13;5064060;28;20473;-76
2021/09/03 16:28:39;;;;;;;5.18;4.47;;;;;;;19.78;60.86;94898.69;5017835;28;20060;-75
2021/09/03 16:31:05;;;;;;;5.50;4.68;;;;;;;19.59;62.04;94890.09;5039888;28;20066;-75
2021/09/03 16:33:30;;;;;;;5.43;3.95;;;;;;;19.59;60.14;94899.81;5047022;28;20032;-76
2021/09/03 16:35:56;;;;;;;7.43;4.80;;;;;;;19.68;59.74;94896.63;5058122;28;20037;-76
2021/09/03 16:38:21;;;;;;;5.63;4.30;;;;;;;19.69;59.47;94900.06;5055007;28;20025;-75
2021/09/03 16:40:47;;;;;;;7.50;4.53;;;;;;;19.41;59.64;94904.16;5056705;28;20436;-76
2021/09/03 16:43:12;;;;;;;6.93;4.40;;;;;;;19.45;60.30;94902.69;5065135;28;20028;-75
2021/09/03 16:45:38;;;;;;;7.40;4.47;;;;;;;19.31;61.38;94898.63;5066138;28;20035;-75
2021/09/03 16:48:03;;;;;;;8.52;4.28;;;;;;;19.23;61.78;94901.56;5064931;28;20017;-75
2021/09/03 16:50:29;;;;;;;5.82;4.03;;;;;;;19.30;62.29;94911.97;5047799;28;20029;-75
2021/09/03 16:52:55;;;;;;;6.30;4.90;;;;;;;18.41;65.64;94921.41;5042516;28;20029;-75
2021/09/03 16:55:20;;;;;;;4.97;4.45;;;;;;;18.49;65.86;94916.91;5041876;28;20494;-75
2021/09/03 16:57:46;;;;;;;5.78;4.70;;;;;;;18.56;63.32;94915.81;5051000;28;20028;-75
2021/09/03 17:00:11;;;;;;;5.45;4.65;;;;;;;18.59;64.51;94917.22;5068332;28;20074;-75
2021/09/03 17:02:37;;;;;;;8.27;5.13;;;;;;;18.07;67.31;94924.63;5070324;28;20032;-74